sensor_id;sensor_type;location;lat;lon;timestamp;pressure;altitude;pressure_sealevel;temperature;humidity
77877;BME280;67251;50.844;7.978;2023-03-26T00:01:46;98019.22;;;5.06;83.69
77877;BME280;67251;50.844;7.978;2023-03-26T00:04:14;98022.91;;;5.05;83.10
77877;BME280;67251;50.844;7.978;2023-03-26T00:06:44;98027.19;;;5.06;83.69
77877;BME280;67251;50.844;7.978;2023-03-26T00:09:13;98019.22;;;5.06;82.94
77877;BME280;67251;50.844;7.978;2023-03-26T00:11:40;98015.19;;;5.10;82.50
77877;BME280;67251;50.844;7.978;2023-03-26T00:14:06;98021.13;;;5.12;82.16
77877;BME280;67251;50.844;7.978;2023-03-26T00:16:33;98023.97;;;5.11;82.45
77877;BME280;67251;50.844;7.978;2023-03-26T00:19:00;98025.19;;;5.08;82.34
77877;BME280;67251;50.844;7.978;2023-03-26T00:21:28;98018.22;;;5.07;82.79
77877;BME280;67251;50.844;7.978;2023-03-26T00:23:56;98018.66;;;5.11;82.10
77877;BME280;67251;50.844;7.978;2023-03-26T00:26:24;98023.53;;;5.07;82.75
77877;BME280;67251;50.844;7.978;2023-03-26T00:28:49;98031.66;;;5.06;82.38
77877;BME280;67251;50.844;7.978;2023-03-26T00:31:15;98026.38;;;5.06;82.39
77877;BME280;67251;50.844;7.978;2023-03-26T00:33:41;98029.03;;;5.06;82.40
77877;BME280;67251;50.844;7.978;2023-03-26T00:36:09;98027.19;;;5.06;82.41
77877;BME280;67251;50.844;7.978;2023-03-26T00:38:36;98026.44;;;5.12;81.58
77877;BME280;67251;50.844;7.978;2023-03-26T00:41:04;98027.28;;;5.13;81.65
77877;BME280;67251;50.844;7.978;2023-03-26T00:43:32;98037.03;;;5.12;81.80
77877;BME280;67251;50.844;7.978;2023-03-26T00:45:58;98030.09;;;5.11;81.66
77877;BME280;67251;50.844;7.978;2023-03-26T00:48:24;98023.97;;;5.11;81.77
77877;BME280;67251;50.844;7.978;2023-03-26T00:50:51;98023.34;;;5.09;82.01
77877;BME280;67251;50.844;7.978;2023-03-26T00:53:17;98028.00;;;5.07;82.02
77877;BME280;67251;50.844;7.978;2023-03-26T00:55:45;98023.06;;;5.19;79.69
77877;BME280;67251;50.844;7.978;2023-03-26T00:58:11;98029.44;;;5.24;80.23
77877;BME280;67251;50.844;7.978;2023-03-26T01:00:50;98022.91;;;5.27;79.41
77877;BME280;67251;50.844;7.978;2023-03-26T01:03:18;98022.09;;;5.26;79.87
77877;BME280;67251;50.844;7.978;2023-03-26T01:05:50;98015.09;;;5.19;80.53
77877;BME280;67251;50.844;7.978;2023-03-26T01:08:45;98013.47;;;5.18;80.32
77877;BME280;67251;50.844;7.978;2023-03-26T01:11:20;98015.25;;;5.17;80.40
77877;BME280;67251;50.844;7.978;2023-03-26T01:14:06;98009.34;;;5.15;80.64
77877;BME280;67251;50.844;7.978;2023-03-26T01:17:02;98006.13;;;5.20;79.96
77877;BME280;67251;50.844;7.978;2023-03-26T01:19:32;98007.16;;;5.19;79.13
77877;BME280;67251;50.844;7.978;2023-03-26T01:22:03;97997.09;;;5.14;80.08
77877;BME280;67251;50.844;7.978;2023-03-26T01:24:29;98012.75;;;5.09;79.85
77877;BME280;67251;50.844;7.978;2023-03-26T01:27:13;97998.03;;;5.06;80.11
77877;BME280;67251;50.844;7.978;2023-03-26T01:29:54;97990.81;;;5.00;81.34
77877;BME280;67251;50.844;7.978;2023-03-26T01:35:22;97973.22;;;4.78;81.74
77877;BME280;67251;50.844;7.978;2023-03-26T01:40:25;97976.22;;;4.75;81.44
77877;BME280;67251;50.844;7.978;2023-03-26T01:43:07;97976.22;;;4.75;81.25
77877;BME280;67251;50.844;7.978;2023-03-26T01:45:40;97970.56;;;4.78;81.19
77877;BME280;67251;50.844;7.978;2023-03-26T01:48:08;97965.28;;;4.78;81.87
77877;BME280;67251;50.844;7.978;2023-03-26T01:53:10;97970.00;;;4.82;81.87
77877;BME280;67251;50.844;7.978;2023-03-26T02:00:48;97958.66;;;4.88;81.91
77877;BME280;67251;50.844;7.978;2023-03-26T02:03:38;97954.47;;;4.94;81.27
77877;BME280;67251;50.844;7.978;2023-03-26T02:06:31;97955.84;;;4.90;81.52
77877;BME280;67251;50.844;7.978;2023-03-26T02:09:06;97946.97;;;4.83;81.56
77877;BME280;67251;50.844;7.978;2023-03-26T02:11:34;97952.13;;;4.70;82.10
77877;BME280;67251;50.844;7.978;2023-03-26T02:14:03;97947.94;;;4.60;82.34
77877;BME280;67251;50.844;7.978;2023-03-26T02:16:28;97957.28;;;4.56;82.38
77877;BME280;67251;50.844;7.978;2023-03-26T02:18:54;97947.84;;;4.54;82.64
77877;BME280;67251;50.844;7.978;2023-03-26T02:21:22;97950.69;;;4.52;83.11
77877;BME280;67251;50.844;7.978;2023-03-26T02:23:55;97943.75;;;4.51;83.29
77877;BME280;67251;50.844;7.978;2023-03-26T02:26:28;97950.78;;;4.44;83.63
77877;BME280;67251;50.844;7.978;2023-03-26T02:28:54;97948.69;;;4.40;83.81
77877;BME280;67251;50.844;7.978;2023-03-26T02:31:19;97940.75;;;4.40;83.94
77877;BME280;67251;50.844;7.978;2023-03-26T02:33:45;97942.78;;;4.38;84.15
77877;BME280;67251;50.844;7.978;2023-03-26T02:36:12;97939.66;;;4.34;84.17
77877;BME280;67251;50.844;7.978;2023-03-26T02:38:38;97937.38;;;4.31;84.55
77877;BME280;67251;50.844;7.978;2023-03-26T02:41:04;97932.28;;;4.29;84.83
77877;BME280;67251;50.844;7.978;2023-03-26T02:43:30;97926.78;;;4.31;84.84
77877;BME280;67251;50.844;7.978;2023-03-26T02:45:56;97921.84;;;4.28;85.05
77877;BME280;67251;50.844;7.978;2023-03-26T02:48:21;97914.56;;;4.15;85.37
77877;BME280;67251;50.844;7.978;2023-03-26T02:50:47;97913.09;;;3.98;86.25
77877;BME280;67251;50.844;7.978;2023-03-26T02:53:17;97911.59;;;3.80;86.72
77877;BME280;67251;50.844;7.978;2023-03-26T02:55:43;97903.56;;;3.59;87.48
77877;BME280;67251;50.844;7.978;2023-03-26T02:58:08;97902.88;;;3.42;88.37
77877;BME280;67251;50.844;7.978;2023-03-26T03:00:34;97892.41;;;3.34;88.88
77877;BME280;67251;50.844;7.978;2023-03-26T03:03:00;97894.63;;;3.22;89.57
77877;BME280;67251;50.844;7.978;2023-03-26T03:05:28;97882.00;;;3.10;89.96
77877;BME280;67251;50.844;7.978;2023-03-26T03:07:56;97881.78;;;2.96;90.35
77877;BME280;67251;50.844;7.978;2023-03-26T03:10:24;97883.81;;;2.86;90.45
77877;BME280;67251;50.844;7.978;2023-03-26T03:12:49;97880.94;;;2.73;90.69
77877;BME280;67251;50.844;7.978;2023-03-26T03:15:15;97879.56;;;2.54;90.85
77877;BME280;67251;50.844;7.978;2023-03-26T03:17:40;97874.69;;;2.43;91.25
77877;BME280;67251;50.844;7.978;2023-03-26T03:20:06;97876.19;;;2.45;91.81
77877;BME280;67251;50.844;7.978;2023-03-26T03:22:34;97873.94;;;2.57;91.63
77877;BME280;67251;50.844;7.978;2023-03-26T03:25:00;97868.34;;;2.83;91.59
77877;BME280;67251;50.844;7.978;2023-03-26T03:27:27;97875.84;;;2.94;91.23
77877;BME280;67251;50.844;7.978;2023-03-26T03:29:52;97871.75;;;2.92;90.88
77877;BME280;67251;50.844;7.978;2023-03-26T03:32:20;97865.28;;;2.94;91.63
77877;BME280;67251;50.844;7.978;2023-03-26T03:34:47;97863.34;;;3.11;92.53
77877;BME280;67251;50.844;7.978;2023-03-26T03:37:14;97863.44;;;3.18;92.05
77877;BME280;67251;50.844;7.978;2023-03-26T03:39:39;97854.16;;;3.22;91.75
77877;BME280;67251;50.844;7.978;2023-03-26T03:42:05;97859.09;;;3.25;91.49
77877;BME280;67251;50.844;7.978;2023-03-26T03:44:30;97857.72;;;3.29;91.14
77877;BME280;67251;50.844;7.978;2023-03-26T03:46:55;97856.91;;;3.28;91.19
77877;BME280;67251;50.844;7.978;2023-03-26T03:49:21;97845.97;;;3.31;90.90
77877;BME280;67251;50.844;7.978;2023-03-26T03:51:47;97849.25;;;3.33;91.01
77877;BME280;67251;50.844;7.978;2023-03-26T03:54:13;97846.06;;;3.38;90.89
77877;BME280;67251;50.844;7.978;2023-03-26T03:56:38;97843.41;;;3.38;90.68
77877;BME280;67251;50.844;7.978;2023-03-26T03:59:04;97844.44;;;3.37;90.89
77877;BME280;67251;50.844;7.978;2023-03-26T04:01:29;97844.44;;;3.37;91.04
77877;BME280;67251;50.844;7.978;2023-03-26T04:03:56;97843.41;;;3.38;91.11
77877;BME280;67251;50.844;7.978;2023-03-26T04:06:22;97833.66;;;3.39;91.16
77877;BME280;67251;50.844;7.978;2023-03-26T04:08:50;97832.69;;;3.40;91.72
77877;BME280;67251;50.844;7.978;2023-03-26T04:11:15;97835.97;;;3.42;91.35
77877;BME280;67251;50.844;7.978;2023-03-26T04:13:42;97828.69;;;3.44;91.38
77877;BME280;67251;50.844;7.978;2023-03-26T04:16:08;97830.78;;;3.48;91.16
77877;BME280;67251;50.844;7.978;2023-03-26T04:18:34;97822.66;;;3.50;91.35
77877;BME280;67251;50.844;7.978;2023-03-26T04:21:02;97815.75;;;3.49;91.41
77877;BME280;67251;50.844;7.978;2023-03-26T04:23:28;97815.53;;;3.50;91.37
77877;BME280;67251;50.844;7.978;2023-03-26T04:25:54;97815.19;;;3.53;91.75
77877;BME280;67251;50.844;7.978;2023-03-26T04:28:29;97804.41;;;3.55;91.57
77877;BME280;67251;50.844;7.978;2023-03-26T04:31:02;97806.25;;;3.54;91.37
77877;BME280;67251;50.844;7.978;2023-03-26T04:33:32;97798.31;;;3.54;91.40
77877;BME280;67251;50.844;7.978;2023-03-26T04:35:59;97794.03;;;3.53;91.36
77877;BME280;67251;50.844;7.978;2023-03-26T04:38:30;97795.88;;;3.53;91.69
77877;BME280;67251;50.844;7.978;2023-03-26T04:40:59;97788.09;;;3.51;91.75
77877;BME280;67251;50.844;7.978;2023-03-26T04:43:24;97785.19;;;3.46;91.62
77877;BME280;67251;50.844;7.978;2023-03-26T04:45:51;97785.72;;;3.42;92.02
77877;BME280;67251;50.844;7.978;2023-03-26T04:48:17;97787.91;;;3.38;92.15
77877;BME280;67251;50.844;7.978;2023-03-26T04:50:45;97780.97;;;3.37;92.25
77877;BME280;67251;50.844;7.978;2023-03-26T04:53:13;97768.41;;;3.39;92.29
77877;BME280;67251;50.844;7.978;2023-03-26T04:55:49;97767.47;;;3.47;92.39
77877;BME280;67251;50.844;7.978;2023-03-26T04:58:16;97759.53;;;3.47;92.03
77877;BME280;67251;50.844;7.978;2023-03-26T05:00:42;97758.72;;;3.46;92.31
77877;BME280;67251;50.844;7.978;2023-03-26T05:03:11;97750.59;;;3.48;92.25
77877;BME280;67251;50.844;7.978;2023-03-26T05:05:36;97742.50;;;3.49;92.09
77877;BME280;67251;50.844;7.978;2023-03-26T05:08:02;97740.69;;;3.50;92.47
77877;BME280;67251;50.844;7.978;2023-03-26T05:10:28;97742.13;;;3.52;92.41
77877;BME280;67251;50.844;7.978;2023-03-26T05:12:53;97742.78;;;3.54;92.43
77877;BME280;67251;50.844;7.978;2023-03-26T05:15:19;97740.13;;;3.54;92.38
77877;BME280;67251;50.844;7.978;2023-03-26T05:17:44;97729.16;;;3.57;92.36
77877;BME280;67251;50.844;7.978;2023-03-26T05:20:36;97712.13;;;3.60;92.16
77877;BME280;67251;50.844;7.978;2023-03-26T05:23:02;97716.84;;;3.65;92.29
77877;BME280;67251;50.844;7.978;2023-03-26T05:25:27;97713.47;;;3.71;92.19
77877;BME280;67251;50.844;7.978;2023-03-26T05:27:53;97712.09;;;3.75;92.06
77877;BME280;67251;50.844;7.978;2023-03-26T05:30:20;97705.78;;;3.76;91.71
77877;BME280;67251;50.844;7.978;2023-03-26T05:32:47;97699.69;;;3.75;92.04
77877;BME280;67251;50.844;7.978;2023-03-26T05:35:13;97696.88;;;3.77;91.83
77877;BME280;67251;50.844;7.978;2023-03-26T05:37:41;97695.91;;;3.84;91.62
77877;BME280;67251;50.844;7.978;2023-03-26T05:40:08;97693.72;;;3.88;91.48
77877;BME280;67251;50.844;7.978;2023-03-26T05:42:37;97687.81;;;3.86;91.27
77877;BME280;67251;50.844;7.978;2023-03-26T05:45:04;97685.88;;;3.80;91.48
77877;BME280;67251;50.844;7.978;2023-03-26T05:47:30;97684.06;;;3.80;91.66
77877;BME280;67251;50.844;7.978;2023-03-26T05:49:56;97685.88;;;3.80;91.62
77877;BME280;67251;50.844;7.978;2023-03-26T05:52:21;97685.06;;;3.79;91.51
77877;BME280;67251;50.844;7.978;2023-03-26T05:54:47;97677.78;;;3.81;91.57
77877;BME280;67251;50.844;7.978;2023-03-26T05:57:12;97676.22;;;3.87;91.60
77877;BME280;67251;50.844;7.978;2023-03-26T05:59:37;97668.97;;;3.96;92.18
77877;BME280;67251;50.844;7.978;2023-03-26T06:02:03;97668.84;;;4.04;91.69
77877;BME280;67251;50.844;7.978;2023-03-26T06:04:28;97663.63;;;4.10;91.75
77877;BME280;67251;50.844;7.978;2023-03-26T06:06:53;97651.66;;;4.15;91.74
77877;BME280;67251;50.844;7.978;2023-03-26T06:09:19;97651.91;;;4.20;91.36
77877;BME280;67251;50.844;7.978;2023-03-26T06:11:44;97648.03;;;4.22;91.18
77877;BME280;67251;50.844;7.978;2023-03-26T06:14:09;97631.78;;;4.25;91.38
77877;BME280;67251;50.844;7.978;2023-03-26T06:16:36;97631.41;;;4.28;91.13
77877;BME280;67251;50.844;7.978;2023-03-26T06:19:01;97631.00;;;4.31;90.88
77877;BME280;67251;50.844;7.978;2023-03-26T06:21:27;97635.13;;;4.34;90.79
77877;BME280;67251;50.844;7.978;2023-03-26T06:23:53;97624.97;;;4.38;90.59
77877;BME280;67251;50.844;7.978;2023-03-26T06:26:20;97627.00;;;4.42;90.35
77877;BME280;67251;50.844;7.978;2023-03-26T06:28:46;97622.00;;;4.47;90.70
77877;BME280;67251;50.844;7.978;2023-03-26T06:31:12;97612.25;;;4.54;90.73
77877;BME280;67251;50.844;7.978;2023-03-26T06:33:37;97610.47;;;4.61;89.99
77877;BME280;67251;50.844;7.978;2023-03-26T06:36:03;97617.25;;;4.71;90.04
77877;BME280;67251;50.844;7.978;2023-03-26T06:38:28;97614.44;;;4.79;89.73
77877;BME280;67251;50.844;7.978;2023-03-26T06:41:01;97609.00;;;4.87;89.48
77877;BME280;67251;50.844;7.978;2023-03-26T06:43:26;97613.31;;;4.95;89.05
77877;BME280;67251;50.844;7.978;2023-03-26T06:45:51;97612.34;;;5.02;88.83
77877;BME280;67251;50.844;7.978;2023-03-26T06:48:17;97609.28;;;5.05;88.60
77877;BME280;67251;50.844;7.978;2023-03-26T06:50:42;97613.56;;;5.06;88.92
77877;BME280;67251;50.844;7.978;2023-03-26T06:53:09;97610.13;;;5.06;89.08
77877;BME280;67251;50.844;7.978;2023-03-26T06:55:35;97612.16;;;5.04;89.42
77877;BME280;67251;50.844;7.978;2023-03-26T06:58:01;97609.06;;;5.00;89.66
77877;BME280;67251;50.844;7.978;2023-03-26T07:00:26;97608.63;;;4.97;89.80
77877;BME280;67251;50.844;7.978;2023-03-26T07:02:51;97604.16;;;4.97;89.70
77877;BME280;67251;50.844;7.978;2023-03-26T07:05:17;97591.72;;;4.98;89.47
77877;BME280;67251;50.844;7.978;2023-03-26T07:07:42;97586.63;;;5.03;89.13
77877;BME280;67251;50.844;7.978;2023-03-26T07:10:08;97579.75;;;5.08;89.26
77877;BME280;67251;50.844;7.978;2023-03-26T07:12:37;97577.31;;;5.13;88.77
77877;BME280;67251;50.844;7.978;2023-03-26T07:15:03;97579.19;;;5.20;87.85
77877;BME280;67251;50.844;7.978;2023-03-26T07:17:28;97574.47;;;5.22;87.72
77877;BME280;67251;50.844;7.978;2023-03-26T07:19:54;97558.78;;;5.27;87.70
77877;BME280;67251;50.844;7.978;2023-03-26T07:22:22;97561.28;;;5.35;87.59
77877;BME280;67251;50.844;7.978;2023-03-26T07:24:49;97554.56;;;5.46;86.90
77877;BME280;67251;50.844;7.978;2023-03-26T07:30:02;97542.41;;;5.91;85.71
77877;BME280;67251;50.844;7.978;2023-03-26T07:45:39;97519.72;;;6.42;84.74
77877;BME280;67251;50.844;7.978;2023-03-26T07:48:15;97517.06;;;6.48;84.78
77877;BME280;67251;50.844;7.978;2023-03-26T07:50:46;97509.06;;;6.48;84.50
77877;BME280;67251;50.844;7.978;2023-03-26T07:53:13;97511.75;;;6.48;83.73
77877;BME280;67251;50.844;7.978;2023-03-26T07:55:52;97507.66;;;6.52;84.01
77877;BME280;67251;50.844;7.978;2023-03-26T07:58:35;97508.03;;;6.49;83.97
77877;BME280;67251;50.844;7.978;2023-03-26T08:01:16;97502.75;;;6.56;84.14
77877;BME280;67251;50.844;7.978;2023-03-26T08:03:59;97499.25;;;6.49;83.73
77877;BME280;67251;50.844;7.978;2023-03-26T08:14:26;97499.50;;;6.34;84.59
77877;BME280;67251;50.844;7.978;2023-03-26T08:17:14;97491.72;;;6.39;85.18
77877;BME280;67251;50.844;7.978;2023-03-26T08:22:35;97481.56;;;6.23;86.17
77877;BME280;67251;50.844;7.978;2023-03-26T08:27:39;97488.31;;;6.05;87.29
77877;BME280;67251;50.844;7.978;2023-03-26T08:30:21;97483.63;;;6.07;87.34
77877;BME280;67251;50.844;7.978;2023-03-26T08:32:56;97477.28;;;6.02;88.25
77877;BME280;67251;50.844;7.978;2023-03-26T08:35:23;97485.44;;;6.00;88.42
77877;BME280;67251;50.844;7.978;2023-03-26T08:37:49;97482.38;;;5.97;88.76
77877;BME280;67251;50.844;7.978;2023-03-26T08:40:24;97483.63;;;5.94;88.73
77877;BME280;67251;50.844;7.978;2023-03-26T08:43:16;97479.13;;;5.95;88.59
77877;BME280;67251;50.844;7.978;2023-03-26T08:49:02;97470.09;;;6.15;88.36
77877;BME280;67251;50.844;7.978;2023-03-26T09:14:01;97480.53;;;5.51;85.41
77877;BME280;67251;50.844;7.978;2023-03-26T09:24:59;97469.72;;;5.92;85.38
77877;BME280;67251;50.844;7.978;2023-03-26T09:27:45;97465.63;;;5.89;84.87
77877;BME280;67251;50.844;7.978;2023-03-26T09:30:33;97467.69;;;5.94;84.48
77877;BME280;67251;50.844;7.978;2023-03-26T09:40:58;97466.03;;;5.60;83.79
77877;BME280;67251;50.844;7.978;2023-03-26T09:43:54;97460.50;;;5.48;84.00
77877;BME280;67251;50.844;7.978;2023-03-26T10:03:15;97447.91;;;4.82;84.68
77877;BME280;67251;50.844;7.978;2023-03-26T10:11:11;97452.28;;;4.49;84.94
77877;BME280;67251;50.844;7.978;2023-03-26T10:19:34;97425.41;;;4.17;87.10
77877;BME280;67251;50.844;7.978;2023-03-26T10:27:26;97420.06;;;4.45;86.23
77877;BME280;67251;50.844;7.978;2023-03-26T10:44:06;97391.50;;;5.81;80.72
77877;BME280;67251;50.844;7.978;2023-03-26T10:49:40;97392.13;;;6.03;79.91
77877;BME280;67251;50.844;7.978;2023-03-26T10:52:17;97378.75;;;6.30;79.71
77877;BME280;67251;50.844;7.978;2023-03-26T10:54:58;97383.16;;;6.49;79.42
77877;BME280;67251;50.844;7.978;2023-03-26T10:58:04;97381.34;;;6.88;77.25
77877;BME280;67251;50.844;7.978;2023-03-26T11:00:39;97369.00;;;7.00;77.14
77877;BME280;67251;50.844;7.978;2023-03-26T11:05:49;97360.97;;;6.75;78.12
77877;BME280;67251;50.844;7.978;2023-03-26T11:08:34;97356.28;;;6.71;78.40
77877;BME280;67251;50.844;7.978;2023-03-26T11:11:04;97365.06;;;6.71;78.90
77877;BME280;67251;50.844;7.978;2023-03-26T11:24:47;97339.72;;;7.32;77.21
77877;BME280;67251;50.844;7.978;2023-03-26T11:33:04;97314.34;;;9.06;73.30
77877;BME280;67251;50.844;7.978;2023-03-26T11:38:02;97317.81;;;8.65;74.28
77877;BME280;67251;50.844;7.978;2023-03-26T11:40:41;97316.16;;;8.52;74.09
77877;BME280;67251;50.844;7.978;2023-03-26T11:43:11;97308.69;;;8.42;75.25
77877;BME280;67251;50.844;7.978;2023-03-26T11:45:40;97308.09;;;8.40;76.73
77877;BME280;67251;50.844;7.978;2023-03-26T11:48:31;97319.19;;;8.01;78.32
77877;BME280;67251;50.844;7.978;2023-03-26T11:51:17;97312.44;;;7.80;79.02
77877;BME280;67251;50.844;7.978;2023-03-26T11:53:44;97319.78;;;7.84;79.94
77877;BME280;67251;50.844;7.978;2023-03-26T11:56:32;97320.25;;;7.56;76.44
77877;BME280;67251;50.844;7.978;2023-03-26T11:59:03;97324.78;;;7.31;78.99
77877;BME280;67251;50.844;7.978;2023-03-26T12:01:47;97312.94;;;7.27;79.44
77877;BME280;67251;50.844;7.978;2023-03-26T12:04:25;97304.53;;;7.05;79.73
77877;BME280;67251;50.844;7.978;2023-03-26T12:09:17;97286.56;;;7.87;78.45
77877;BME280;67251;50.844;7.978;2023-03-26T12:11:42;97280.84;;;8.38;77.66
77877;BME280;67251;50.844;7.978;2023-03-26T12:14:16;97285.47;;;8.61;75.10
77877;BME280;67251;50.844;7.978;2023-03-26T12:17:12;97282.06;;;8.54;76.35
77877;BME280;67251;50.844;7.978;2023-03-26T12:19:43;97280.44;;;8.53;75.31
77877;BME280;67251;50.844;7.978;2023-03-26T12:22:31;97277.38;;;8.68;75.13
77877;BME280;67251;50.844;7.978;2023-03-26T12:25:21;97269.38;;;8.80;75.44
77877;BME280;67251;50.844;7.978;2023-03-26T12:28:17;97266.63;;;8.98;74.50
77877;BME280;67251;50.844;7.978;2023-03-26T12:30:57;97261.78;;;8.95;75.66
77877;BME280;67251;50.844;7.978;2023-03-26T12:33:28;97258.38;;;8.76;75.32
77877;BME280;67251;50.844;7.978;2023-03-26T12:35:55;97261.00;;;8.64;76.70
77877;BME280;67251;50.844;7.978;2023-03-26T12:41:06;97251.44;;;8.45;76.89
77877;BME280;67251;50.844;7.978;2023-03-26T12:43:56;97245.13;;;8.69;77.50
77877;BME280;67251;50.844;7.978;2023-03-26T12:46:33;97254.31;;;8.74;75.89
77877;BME280;67251;50.844;7.978;2023-03-26T12:49:02;97252.63;;;8.49;74.48
77877;BME280;67251;50.844;7.978;2023-03-26T12:51:33;97256.06;;;8.38;78.66
77877;BME280;67251;50.844;7.978;2023-03-26T12:56:55;97248.59;;;8.10;77.66
77877;BME280;67251;50.844;7.978;2023-03-26T13:00:16;97241.97;;;7.82;78.19
77877;BME280;67251;50.844;7.978;2023-03-26T13:08:09;97246.69;;;7.62;80.53
77877;BME280;67251;50.844;7.978;2023-03-26T13:10:49;97240.69;;;7.66;81.79
77877;BME280;67251;50.844;7.978;2023-03-26T13:16:00;97251.28;;;7.73;80.68
77877;BME280;67251;50.844;7.978;2023-03-26T13:18:54;97246.53;;;7.93;80.77
77877;BME280;67251;50.844;7.978;2023-03-26T13:27:47;97239.75;;;7.79;79.02
77877;BME280;67251;50.844;7.978;2023-03-26T13:36:37;97252.84;;;6.69;81.72
77877;BME280;67251;50.844;7.978;2023-03-26T13:39:21;97242.34;;;6.49;81.82
77877;BME280;67251;50.844;7.978;2023-03-26T13:47:56;97227.34;;;7.11;80.28
77877;BME280;67251;50.844;7.978;2023-03-26T13:50:36;97236.19;;;7.85;79.62
77877;BME280;67251;50.844;7.978;2023-03-26T13:53:11;97225.97;;;8.01;76.96
77877;BME280;67251;50.844;7.978;2023-03-26T13:55:44;97225.81;;;8.14;75.94
77877;BME280;67251;50.844;7.978;2023-03-26T14:01:07;97232.41;;;7.56;77.92
77877;BME280;67251;50.844;7.978;2023-03-26T14:09:04;97242.94;;;6.20;83.32
77877;BME280;67251;50.844;7.978;2023-03-26T14:14:24;97238.53;;;6.00;85.84
77877;BME280;67251;50.844;7.978;2023-03-26T14:16:58;97248.75;;;5.90;86.27
77877;BME280;67251;50.844;7.978;2023-03-26T14:22:16;97249.81;;;5.82;87.31
77877;BME280;67251;50.844;7.978;2023-03-26T14:25:06;97259.59;;;5.82;87.17
77877;BME280;67251;50.844;7.978;2023-03-26T14:27:53;97255.09;;;5.89;86.80
77877;BME280;67251;50.844;7.978;2023-03-26T14:30:28;97259.78;;;5.87;87.04
77877;BME280;67251;50.844;7.978;2023-03-26T14:41:49;97259.44;;;5.77;86.52
77877;BME280;67251;50.844;7.978;2023-03-26T14:47:16;97250.44;;;5.84;86.90
77877;BME280;67251;50.844;7.978;2023-03-26T14:52:46;97255.28;;;5.87;86.72
77877;BME280;67251;50.844;7.978;2023-03-26T15:11:30;97261.56;;;7.08;83.04
77877;BME280;67251;50.844;7.978;2023-03-26T15:20:10;97264.44;;;7.50;80.75
77877;BME280;67251;50.844;7.978;2023-03-26T15:36:22;97277.19;;;6.98;84.10
77877;BME280;67251;50.844;7.978;2023-03-26T15:39:21;97278.69;;;6.87;83.69
77877;BME280;67251;50.844;7.978;2023-03-26T15:55:29;97289.00;;;6.45;85.21
77877;BME280;67251;50.844;7.978;2023-03-26T16:03:56;97309.75;;;6.17;86.92
77877;BME280;67251;50.844;7.978;2023-03-26T16:06:28;97309.94;;;6.22;86.57
77877;BME280;67251;50.844;7.978;2023-03-26T16:11:53;97315.84;;;6.62;84.90
77877;BME280;67251;50.844;7.978;2023-03-26T16:17:05;97324.66;;;6.94;84.39
77877;BME280;67251;50.844;7.978;2023-03-26T16:19:49;97325.78;;;7.05;83.95
77877;BME280;67251;50.844;7.978;2023-03-26T16:22:38;97326.34;;;7.13;84.04
77877;BME280;67251;50.844;7.978;2023-03-26T16:25:21;97331.25;;;7.16;82.83
77877;BME280;67251;50.844;7.978;2023-03-26T16:30:36;97338.78;;;7.20;82.53
77877;BME280;67251;50.844;7.978;2023-03-26T16:33:10;97345.50;;;6.97;82.00
77877;BME280;67251;50.844;7.978;2023-03-26T16:38:09;97345.84;;;6.76;83.77
77877;BME280;67251;50.844;7.978;2023-03-26T16:40:49;97345.25;;;6.74;84.25
77877;BME280;67251;50.844;7.978;2023-03-26T17:05:16;97382.72;;;5.87;85.03
77877;BME280;67251;50.844;7.978;2023-03-26T17:16:19;97410.50;;;5.58;85.85
77877;BME280;67251;50.844;7.978;2023-03-26T17:32:10;97450.88;;;5.14;86.66
77877;BME280;67251;50.844;7.978;2023-03-26T17:37:04;97455.72;;;4.97;87.35
77877;BME280;67251;50.844;7.978;2023-03-26T17:42:24;97458.94;;;4.86;87.78
77877;BME280;67251;50.844;7.978;2023-03-26T17:44:51;97463.44;;;4.85;89.05
77877;BME280;67251;50.844;7.978;2023-03-26T17:49:56;97471.75;;;4.76;87.23
77877;BME280;67251;50.844;7.978;2023-03-26T17:52:29;97483.94;;;4.70;87.21
77877;BME280;67251;50.844;7.978;2023-03-26T17:54:58;97488.84;;;4.67;87.24
77877;BME280;67251;50.844;7.978;2023-03-26T17:57:32;97495.53;;;4.63;87.33
77877;BME280;67251;50.844;7.978;2023-03-26T18:00:05;97501.22;;;4.59;87.71
77877;BME280;67251;50.844;7.978;2023-03-26T18:02:40;97500.41;;;4.59;87.14
77877;BME280;67251;50.844;7.978;2023-03-26T18:05:11;97508.56;;;4.57;87.28
77877;BME280;67251;50.844;7.978;2023-03-26T18:21:34;97539.88;;;4.47;87.80
77877;BME280;67251;50.844;7.978;2023-03-26T18:24:01;97546.16;;;4.46;87.37
77877;BME280;67251;50.844;7.978;2023-03-26T18:26:32;97553.50;;;4.44;87.73
77877;BME280;67251;50.844;7.978;2023-03-26T18:29:20;97554.28;;;4.38;87.83
77877;BME280;67251;50.844;7.978;2023-03-26T18:31:51;97559.75;;;4.36;88.15
77877;BME280;67251;50.844;7.978;2023-03-26T18:34:17;97567.47;;;4.31;88.52
77877;BME280;67251;50.844;7.978;2023-03-26T18:37:18;97572.31;;;4.28;88.89
77877;BME280;67251;50.844;7.978;2023-03-26T18:42:35;97583.69;;;4.22;88.57
77877;BME280;67251;50.844;7.978;2023-03-26T18:45:04;97590.19;;;4.19;88.36
77877;BME280;67251;50.844;7.978;2023-03-26T18:47:31;97591.00;;;4.20;88.47
77877;BME280;67251;50.844;7.978;2023-03-26T18:49:57;97595.50;;;4.19;88.51
77877;BME280;67251;50.844;7.978;2023-03-26T18:52:26;97605.88;;;4.21;88.05
77877;BME280;67251;50.844;7.978;2023-03-26T18:54:52;97604.25;;;4.20;88.34
77877;BME280;67251;50.844;7.978;2023-03-26T18:57:23;97607.88;;;4.19;88.09
77877;BME280;67251;50.844;7.978;2023-03-26T18:59:51;97603.59;;;4.18;88.17
77877;BME280;67251;50.844;7.978;2023-03-26T19:02:18;97607.28;;;4.17;88.14
77877;BME280;67251;50.844;7.978;2023-03-26T19:04:45;97615.81;;;4.19;87.24
77877;BME280;67251;50.844;7.978;2023-03-26T19:07:20;97608.53;;;4.21;86.51
77877;BME280;67251;50.844;7.978;2023-03-26T19:09:48;97612.44;;;4.25;86.59
77877;BME280;67251;50.844;7.978;2023-03-26T19:12:17;97624.47;;;4.27;87.16
77877;BME280;67251;50.844;7.978;2023-03-26T19:15:11;97630.16;;;4.24;86.82
77877;BME280;67251;50.844;7.978;2023-03-26T19:17:40;97634.81;;;4.22;87.21
77877;BME280;67251;50.844;7.978;2023-03-26T19:20:21;97631.34;;;4.22;86.65
77877;BME280;67251;50.844;7.978;2023-03-26T19:22:48;97640.09;;;4.22;86.72
77877;BME280;67251;50.844;7.978;2023-03-26T19:25:19;97651.25;;;4.18;87.12
77877;BME280;67251;50.844;7.978;2023-03-26T19:27:46;97657.94;;;4.14;87.63